createdAt,value
2023-04-15T00:01:53.717Z,28.88
2023-04-15T00:04:21.036Z,28.59
2023-04-15T00:06:55.349Z,28.80
2023-04-15T00:09:22.502Z,28.96
2023-04-15T00:11:50.767Z,28.89
2023-04-15T00:14:17.811Z,29.73
2023-04-15T00:16:44.939Z,28.85
2023-04-15T00:19:12.411Z,28.78
2023-04-15T00:21:39.434Z,28.96
2023-04-15T00:24:06.614Z,28.62
2023-04-15T00:26:33.979Z,28.71
2023-04-15T00:29:01.680Z,28.95
2023-04-15T00:31:29.046Z,28.64
2023-04-15T00:33:56.023Z,29.61
2023-04-15T00:36:23.649Z,29.65
2023-04-15T00:38:50.937Z,29.67
2023-04-15T00:41:19.812Z,29.12
2023-04-15T00:43:46.829Z,29.05
2023-04-15T00:46:17.818Z,28.85
2023-04-15T00:48:45.289Z,30.10
2023-04-15T00:51:15.160Z,29.64
2023-04-15T00:53:42.363Z,29.40
2023-04-15T00:56:09.513Z,30.26
2023-04-15T00:58:37.304Z,30.68
2023-04-15T01:01:04.988Z,29.90
2023-04-15T01:03:32.998Z,29.78
2023-04-15T01:06:03.715Z,29.66
2023-04-15T01:08:33.767Z,29.96
2023-04-15T01:11:03.757Z,30.32
2023-04-15T01:13:31.372Z,29.63
2023-04-15T01:15:58.736Z,30.73
2023-04-15T01:18:26.111Z,29.92
2023-04-15T01:20:53.811Z,29.81
2023-04-15T01:23:24.442Z,30.44
2023-04-15T01:25:52.810Z,30.42
2023-04-15T01:28:20.590Z,30.77
2023-04-15T01:30:48.167Z,30.42
2023-04-15T01:33:16.178Z,30.03
2023-04-15T01:36:01.856Z,30.78
2023-04-15T01:38:29.977Z,30.60
2023-04-15T01:40:57.187Z,30.75
2023-04-15T01:43:26.570Z,30.73
2023-04-15T01:45:53.683Z,31.06
2023-04-15T01:48:20.661Z,30.58
2023-04-15T01:50:47.585Z,30.53
2023-04-15T01:53:16.062Z,30.74
2023-04-15T01:55:43.148Z,30.76
2023-04-15T01:58:10.164Z,30.92
2023-04-15T02:00:37.329Z,31.44
2023-04-15T02:03:04.615Z,31.04
2023-04-15T02:05:32.052Z,31.30
2023-04-15T02:07:59.255Z,31.21
2023-04-15T02:10:26.507Z,30.99
2023-04-15T02:12:54.380Z,30.88
2023-04-15T02:15:22.422Z,30.99
2023-04-15T02:17:52.922Z,31.25
2023-04-15T02:20:21.696Z,31.19
2023-04-15T02:22:49.425Z,30.94
2023-04-15T02:25:20.464Z,31.15
2023-04-15T02:27:47.423Z,31.27
2023-04-15T02:30:19.140Z,31.65
2023-04-15T02:32:47.213Z,31.39
2023-04-15T02:35:14.356Z,31.56
2023-04-15T02:37:44.058Z,31.56
2023-04-15T02:40:12.579Z,31.57
2023-04-15T02:42:40.522Z,32.16
2023-04-15T02:45:12.314Z,31.92
2023-04-15T02:47:44.076Z,31.84
2023-04-15T02:50:13.332Z,31.99
2023-04-15T02:52:42.625Z,31.99
2023-04-15T02:55:10.887Z,32.35
2023-04-15T02:57:39.331Z,32.15
2023-04-15T03:00:10.541Z,31.81
2023-04-15T03:02:42.176Z,32.39
2023-04-15T03:05:14.035Z,32.11
2023-04-15T03:07:47.302Z,32.24
2023-04-15T03:10:14.562Z,32.40
2023-04-15T03:12:41.579Z,32.02
2023-04-15T03:15:12.375Z,32.08
2023-04-15T03:17:44.085Z,31.94
2023-04-15T03:20:11.478Z,31.79
2023-04-15T03:22:38.642Z,32.04
2023-04-15T03:25:06.408Z,32.52
2023-04-15T03:27:33.742Z,32.33
2023-04-15T03:30:03.528Z,31.69
2023-04-15T03:32:33.653Z,31.50
2023-04-15T03:35:01.021Z,31.67
2023-04-15T03:37:28.038Z,31.75
2023-04-15T03:39:55.056Z,32.66
2023-04-15T03:42:22.207Z,31.47
2023-04-15T03:44:49.141Z,31.97
2023-04-15T03:47:16.580Z,32.03
2023-04-15T03:49:43.586Z,31.76
2023-04-15T03:52:10.879Z,31.15
2023-04-15T03:54:37.838Z,32.20
2023-04-15T03:57:04.965Z,31.78
2023-04-15T03:59:31.985Z,31.37
2023-04-15T04:01:59.043Z,31.56
2023-04-15T04:04:26.163Z,31.24
2023-04-15T04:06:53.145Z,30.66
2023-04-15T04:09:20.122Z,30.02
2023-04-15T04:11:47.065Z,30.41
2023-04-15T04:14:14.058Z,30.14
2023-04-15T04:16:41.253Z,30.01
2023-04-15T04:19:08.635Z,29.68
2023-04-15T04:21:36.688Z,28.76
2023-04-15T04:24:03.817Z,29.08
2023-04-15T04:26:30.895Z,27.92
2023-04-15T04:28:57.792Z,28.22
2023-04-15T04:31:24.948Z,27.83
2023-04-15T04:33:52.020Z,27.53
2023-04-15T04:36:19.002Z,27.04
2023-04-15T04:38:46.136Z,26.89
2023-04-15T04:41:13.115Z,26.56
2023-04-15T04:43:40.447Z,26.97
2023-04-15T04:46:07.542Z,26.84
2023-04-15T04:48:34.730Z,26.78
2023-04-15T04:51:02.162Z,26.59
2023-04-15T04:53:29.368Z,26.30
2023-04-15T04:55:56.393Z,26.91
2023-04-15T04:58:23.401Z,26.88
2023-04-15T05:00:50.569Z,26.99
2023-04-15T05:03:17.979Z,26.24
2023-04-15T05:05:45.086Z,26.22
2023-04-15T05:08:12.376Z,26.62
2023-04-15T05:10:39.472Z,26.51
2023-04-15T05:13:06.729Z,25.65
2023-04-15T05:15:35.128Z,25.79
2023-04-15T05:18:02.360Z,25.50
2023-04-15T05:20:29.371Z,25.47
2023-04-15T05:22:56.406Z,25.56
2023-04-15T05:25:23.514Z,25.02
2023-04-15T05:27:50.692Z,25.46
2023-04-15T05:30:17.737Z,24.92
2023-04-15T05:32:44.731Z,24.96
2023-04-15T05:35:12.573Z,24.09
2023-04-15T05:37:39.652Z,24.80
2023-04-15T05:40:07.203Z,24.80
2023-04-15T05:42:35.920Z,23.75
2023-04-15T05:45:05.616Z,23.85
2023-04-15T05:47:32.875Z,24.05
2023-04-15T05:50:00.149Z,24.18
2023-04-15T05:52:27.599Z,24.05
2023-04-15T05:54:54.609Z,24.57
2023-04-15T05:57:22.009Z,24.46
2023-04-15T05:59:49.665Z,23.61
2023-04-15T06:02:16.901Z,24.30
2023-04-15T06:04:44.192Z,23.67
2023-04-15T06:07:11.185Z,23.04
2023-04-15T06:09:38.303Z,23.03
2023-04-15T06:12:06.943Z,23.41
2023-04-15T06:14:34.131Z,23.10
2023-04-15T06:17:01.561Z,22.65
2023-04-15T06:19:28.557Z,22.29
2023-04-15T06:21:55.822Z,22.06
2023-04-15T06:24:22.971Z,21.71
2023-04-15T06:26:50.164Z,21.38
2023-04-15T06:29:17.273Z,21.12
2023-04-15T06:31:48.277Z,21.00
2023-04-15T06:34:15.362Z,20.18
2023-04-15T06:36:42.333Z,20.17
2023-04-15T06:39:09.309Z,20.02
2023-04-15T06:41:36.592Z,20.36
2023-04-15T06:44:03.882Z,20.13
2023-04-15T06:46:30.889Z,19.77
2023-04-15T06:48:57.834Z,19.66
2023-04-15T06:51:26.656Z,18.42
2023-04-15T06:53:55.986Z,19.26
2023-04-15T06:56:26.238Z,19.31
2023-04-15T06:58:53.213Z,19.23
2023-04-15T07:01:20.484Z,18.59
2023-04-15T07:03:47.598Z,18.24
2023-04-15T07:06:14.685Z,17.82
2023-04-15T07:08:42.435Z,18.02
2023-04-15T07:11:09.746Z,17.57
2023-04-15T07:13:36.932Z,17.24
2023-04-15T07:16:07.148Z,17.43
2023-04-15T07:18:43.611Z,16.37
2023-04-15T07:21:10.913Z,16.73
2023-04-15T07:23:37.901Z,16.71
2023-04-15T07:26:05.034Z,16.65
2023-04-15T07:28:32.162Z,16.73
2023-04-15T07:30:59.189Z,16.18
2023-04-15T07:33:26.371Z,16.17
2023-04-15T07:35:53.383Z,16.29
2023-04-15T07:38:20.364Z,16.58
2023-04-15T07:40:47.544Z,16.58
2023-04-15T07:43:14.604Z,16.80
2023-04-15T07:45:41.727Z,16.47
2023-04-15T07:48:08.877Z,16.20
2023-04-15T07:50:35.904Z,15.69
2023-04-15T07:53:02.960Z,15.78
2023-04-15T07:55:30.814Z,15.76
2023-04-15T07:57:58.044Z,16.31
2023-04-15T08:00:25.176Z,16.37
2023-04-15T08:02:53.499Z,15.46
2023-04-15T08:05:20.887Z,14.84
2023-04-15T08:07:48.432Z,15.00
2023-04-15T08:10:15.778Z,15.05
2023-04-15T08:12:43.108Z,14.59
2023-04-15T08:15:10.630Z,14.38
2023-04-15T08:17:37.823Z,14.11
2023-04-15T08:20:28.056Z,14.84
2023-04-15T08:22:56.580Z,15.00
2023-04-15T08:25:23.634Z,14.15
2023-04-15T08:27:58.423Z,14.23
2023-04-15T08:30:25.530Z,14.91
2023-04-15T08:32:52.679Z,14.67
2023-04-15T08:35:19.792Z,14.09
2023-04-15T08:37:46.979Z,13.68
2023-04-15T08:40:14.343Z,14.01
2023-04-15T08:42:49.258Z,13.27
2023-04-15T08:45:18.383Z,14.12
2023-04-15T08:47:47.630Z,13.97
2023-04-15T08:50:15.445Z,13.89
2023-04-15T08:52:42.900Z,14.30
2023-04-15T08:55:12.198Z,14.39
2023-04-15T08:57:40.070Z,14.68
2023-04-15T09:00:07.860Z,14.23
2023-04-15T09:02:35.473Z,13.86
2023-04-15T09:05:05.141Z,14.94
2023-04-15T09:07:34.878Z,14.22
2023-04-15T09:10:02.246Z,15.26
2023-04-15T09:12:29.224Z,14.83
2023-04-15T09:14:57.385Z,15.09
2023-04-15T09:17:26.783Z,15.31
2023-04-15T09:20:09.101Z,15.20
2023-04-15T09:22:38.587Z,15.02
2023-04-15T09:25:36.773Z,14.65
2023-04-15T09:28:04.595Z,13.93
2023-04-15T09:30:31.844Z,14.07
2023-04-15T09:33:02.391Z,14.21
2023-04-15T09:35:29.506Z,14.21
2023-04-15T09:38:08.105Z,14.23
2023-04-15T09:40:40.450Z,14.42
2023-04-15T09:43:09.811Z,13.40
2023-04-15T09:45:37.268Z,14.34
2023-04-15T09:48:19.184Z,14.10
2023-04-15T09:50:46.336Z,14.60
2023-04-15T09:53:18.563Z,14.02
2023-04-15T09:55:47.520Z,13.79
2023-04-15T09:58:25.196Z,13.97
2023-04-15T10:00:54.019Z,13.54
2023-04-15T10:03:23.796Z,13.81
2023-04-15T10:05:52.950Z,13.38
2023-04-15T10:08:24.031Z,12.97
2023-04-15T10:10:54.944Z,13.12
2023-04-15T10:13:24.535Z,13.06
2023-04-15T10:16:00.045Z,12.69
2023-04-15T10:18:35.272Z,12.02
2023-04-15T10:21:02.595Z,11.99
2023-04-15T10:23:29.881Z,12.36
2023-04-15T10:25:59.080Z,12.43
2023-04-15T10:28:26.974Z,12.17
2023-04-15T10:31:03.806Z,12.18
2023-04-15T10:33:48.825Z,12.08
2023-04-15T10:36:28.158Z,11.43
2023-04-15T10:39:03.936Z,12.12
2023-04-15T10:41:36.046Z,11.72
2023-04-15T10:44:09.242Z,12.05
2023-04-15T10:46:43.590Z,12.50
2023-04-15T10:49:15.939Z,11.97
2023-04-15T10:51:48.118Z,11.31
2023-04-15T10:54:24.805Z,12.06
2023-04-15T10:57:07.073Z,11.86
2023-04-15T10:59:38.575Z,11.17
2023-04-15T11:02:07.629Z,11.47
2023-04-15T11:05:01.020Z,10.55
2023-04-15T11:07:44.997Z,11.30
2023-04-15T11:10:17.895Z,11.12
2023-04-15T11:12:52.734Z,10.79
2023-04-15T11:15:39.048Z,10.36
2023-04-15T11:18:11.578Z,10.23
2023-04-15T11:20:39.765Z,10.46
2023-04-15T11:23:14.141Z,9.89
2023-04-15T11:25:44.328Z,9.84
2023-04-15T11:28:12.975Z,10.21
2023-04-15T11:30:42.441Z,9.57
2023-04-15T11:33:14.882Z,10.15
2023-04-15T11:35:42.740Z,9.31
2023-04-15T11:38:12.250Z,9.38
2023-04-15T11:40:39.630Z,9.93
2023-04-15T11:43:21.189Z,9.18
2023-04-15T11:45:59.205Z,9.42
2023-04-15T11:48:28.298Z,8.79
2023-04-15T11:50:59.757Z,9.16
2023-04-15T11:53:49.368Z,8.53
2023-04-15T11:56:25.660Z,8.81
2023-04-15T11:58:59.506Z,9.04
2023-04-15T12:01:42.538Z,8.99
2023-04-15T12:04:13.806Z,8.50
2023-04-15T12:06:41.897Z,9.11
2023-04-15T12:09:20.473Z,8.31
2023-04-15T12:11:50.049Z,8.67
2023-04-15T12:14:31.368Z,8.52
2023-04-15T12:17:02.155Z,8.36
2023-04-15T12:19:32.835Z,8.79
2023-04-15T12:22:02.474Z,8.69
2023-04-15T12:24:36.049Z,9.14
2023-04-15T12:27:08.446Z,9.53
2023-04-15T12:29:38.505Z,10.16
2023-04-15T12:32:08.068Z,9.74
2023-04-15T12:34:36.476Z,10.21
2023-04-15T12:37:05.921Z,10.75
2023-04-15T12:39:37.014Z,10.40
2023-04-15T12:42:05.562Z,11.15
2023-04-15T12:44:35.089Z,11.12
2023-04-15T12:47:02.663Z,11.18
2023-04-15T12:49:32.972Z,10.85
2023-04-15T12:52:01.998Z,10.37
2023-04-15T12:54:30.717Z,10.98
2023-04-15T12:56:58.504Z,11.04
2023-04-15T12:59:26.031Z,10.33
2023-04-15T13:01:54.155Z,10.54
2023-04-15T13:04:22.377Z,11.00
2023-04-15T13:06:50.234Z,11.03
2023-04-15T13:09:17.748Z,11.41
2023-04-15T13:11:45.017Z,11.05
2023-04-15T13:14:15.105Z,12.10
2023-04-15T13:17:16.765Z,11.22
2023-04-15T13:20:06.588Z,12.30
2023-04-15T13:24:07.273Z,12.37
2023-04-15T13:26:38.391Z,12.01
2023-04-15T13:29:22.151Z,12.29
2023-04-15T13:31:52.456Z,12.10
2023-04-15T13:34:24.458Z,12.47
2023-04-15T13:36:57.014Z,12.73
2023-04-15T13:40:27.630Z,12.58
2023-04-15T13:43:24.516Z,12.13
2023-04-15T13:46:04.412Z,12.01
2023-04-15T13:48:39.826Z,12.21
2023-04-15T13:55:19.174Z,12.44
2023-04-15T13:58:30.641Z,12.11
2023-04-15T14:00:59.226Z,12.64
2023-04-15T14:03:26.683Z,12.11
2023-04-15T14:05:56.231Z,12.56
2023-04-15T14:08:24.895Z,12.71
2023-04-15T14:10:52.037Z,12.57
2023-04-15T14:13:19.798Z,12.79
2023-04-15T14:15:47.549Z,12.09
2023-04-15T14:18:15.317Z,12.62
2023-04-15T14:20:42.342Z,12.80
2023-04-15T14:23:09.349Z,12.86
2023-04-15T14:25:38.975Z,12.35
2023-04-15T14:28:06.257Z,12.43
2023-04-15T14:30:33.605Z,12.70
2023-04-15T14:33:01.037Z,12.83
2023-04-15T14:35:28.823Z,13.11
2023-04-15T14:37:56.686Z,12.99
2023-04-15T14:40:23.793Z,13.12
2023-04-15T14:42:51.394Z,13.56
2023-04-15T14:45:19.899Z,13.48
2023-04-15T14:47:47.790Z,14.00
2023-04-15T14:50:15.201Z,14.47
2023-04-15T14:52:42.606Z,14.34
2023-04-15T14:55:11.338Z,14.39
2023-04-15T14:57:39.490Z,15.13
2023-04-15T15:00:08.399Z,15.25
2023-04-15T15:02:39.748Z,15.81
2023-04-15T15:05:11.033Z,15.44
2023-04-15T15:07:39.648Z,15.71
2023-04-15T15:10:10.112Z,16.14
2023-04-15T15:12:37.294Z,16.41
2023-04-15T15:15:12.485Z,16.13
2023-04-15T15:17:43.712Z,16.48
2023-04-15T15:20:13.866Z,16.30
2023-04-15T15:22:44.964Z,16.47
2023-04-15T15:25:12.123Z,16.43
2023-04-15T15:27:39.344Z,16.72
2023-04-15T15:30:07.279Z,16.66
2023-04-15T15:32:34.741Z,17.12
2023-04-15T15:35:02.245Z,17.24
2023-04-15T15:37:31.957Z,17.11
2023-04-15T15:39:59.561Z,16.96
2023-04-15T15:42:30.083Z,17.18
2023-04-15T15:44:59.751Z,17.54
2023-04-15T15:47:27.193Z,17.71
2023-04-15T15:49:58.153Z,17.30
2023-04-15T15:52:25.304Z,17.36
2023-04-15T15:55:07.982Z,17.74
2023-04-15T15:57:35.109Z,17.72
2023-04-15T16:00:11.949Z,17.95
2023-04-15T16:03:05.043Z,18.39
2023-04-15T16:05:28.102Z,18.19
2023-04-15T16:07:55.729Z,18.42
2023-04-15T16:10:22.844Z,18.84
2023-04-15T16:12:50.719Z,18.92
2023-04-15T16:15:26.554Z,19.06
2023-04-15T16:18:21.975Z,18.62
2023-04-15T16:20:49.428Z,19.05
2023-04-15T16:23:24.826Z,19.54
2023-04-15T16:25:55.041Z,19.72
2023-04-15T16:28:26.781Z,19.59
2023-04-15T16:30:55.595Z,19.64
2023-04-15T16:33:22.760Z,19.69
2023-04-15T16:35:49.965Z,19.84
2023-04-15T16:38:17.096Z,19.43
2023-04-15T16:40:44.449Z,19.76
2023-04-15T16:43:11.952Z,19.83
2023-04-15T16:45:39.400Z,19.55
2023-04-15T16:48:14.071Z,19.91
2023-04-15T16:50:47.367Z,20.10
2023-04-15T16:53:18.116Z,20.01
2023-04-15T16:55:45.907Z,20.67
2023-04-15T16:58:12.977Z,20.25
2023-04-15T17:00:40.197Z,20.96
2023-04-15T17:03:07.609Z,20.84
2023-04-15T17:05:42.569Z,20.77
2023-04-15T17:08:09.985Z,20.75
2023-04-15T17:10:37.168Z,21.39
2023-04-15T17:13:04.202Z,20.71
2023-04-15T17:15:31.592Z,20.65
2023-04-15T17:18:18.411Z,20.61
2023-04-15T17:20:57.842Z,21.20
2023-04-15T17:23:27.292Z,21.17
2023-04-15T17:25:54.903Z,21.14
2023-04-15T17:28:23.146Z,21.25
2023-04-15T17:30:51.770Z,21.19
2023-04-15T17:33:56.163Z,21.33
2023-04-15T17:36:46.550Z,21.05
2023-04-15T17:39:33.746Z,21.31
2023-04-15T17:42:22.883Z,21.15
2023-04-15T17:45:10.484Z,21.37
2023-04-15T17:48:03.785Z,21.72
2023-04-15T17:50:53.900Z,21.48
2023-04-15T17:53:41.612Z,21.71
2023-04-15T17:56:29.408Z,21.86
2023-04-15T17:59:17.052Z,22.09
2023-04-15T18:02:04.287Z,22.66
2023-04-15T18:04:51.545Z,22.54
2023-04-15T18:07:38.938Z,22.87
2023-04-15T18:10:25.906Z,23.35
2023-04-15T18:13:12.994Z,23.42
2023-04-15T18:15:59.959Z,23.06
2023-04-15T18:18:46.956Z,23.24
2023-04-15T18:21:14.100Z,23.15
2023-04-15T18:23:41.464Z,23.32
2023-04-15T18:26:08.663Z,23.22
2023-04-15T18:28:35.898Z,23.33
2023-04-15T18:31:04.007Z,23.15
2023-04-15T18:33:36.646Z,23.42
2023-04-15T18:36:03.966Z,23.59
2023-04-15T18:38:33.540Z,24.16
2023-04-15T18:41:00.898Z,24.67
2023-04-15T18:43:28.069Z,24.90
2023-04-15T18:45:55.351Z,24.88
2023-04-15T18:48:22.686Z,25.32
2023-04-15T18:50:56.286Z,25.30
2023-04-15T18:53:23.571Z,25.66
2023-04-15T18:55:51.902Z,25.11
2023-04-15T18:58:19.026Z,25.71
2023-04-15T19:00:46.254Z,25.59
2023-04-15T19:03:13.445Z,25.53
2023-04-15T19:05:40.960Z,25.60
2023-04-15T19:08:08.085Z,26.20
2023-04-15T19:10:35.588Z,25.20
2023-04-15T19:13:04.300Z,25.51
2023-04-15T19:15:31.924Z,25.77
2023-04-15T19:17:59.138Z,25.96
2023-04-15T19:20:26.598Z,25.40
2023-04-15T19:22:55.204Z,25.36
2023-04-15T19:25:22.409Z,25.46
2023-04-15T19:27:49.597Z,25.81
2023-04-15T19:30:19.255Z,25.36
2023-04-15T19:32:46.427Z,25.72
2023-04-15T19:35:14.472Z,25.83
2023-04-15T19:37:41.761Z,25.95
2023-04-15T19:40:09.704Z,25.99
2023-04-15T19:42:36.794Z,25.94
2023-04-15T19:45:04.499Z,26.33
2023-04-15T19:47:36.996Z,26.45
2023-04-15T19:50:06.266Z,26.55
2023-04-15T19:52:34.376Z,26.49
2023-04-15T19:55:01.507Z,27.26
2023-04-15T19:57:31.037Z,27.36
2023-04-15T19:59:58.342Z,27.34
2023-04-15T20:02:25.635Z,27.35
2023-04-15T20:04:52.727Z,27.30
2023-04-15T20:07:19.838Z,27.62
2023-04-15T20:09:50.219Z,27.82
2023-04-15T20:12:51.756Z,27.50
2023-04-15T20:15:04.733Z,27.34
2023-04-15T20:17:36.250Z,28.01
2023-04-15T20:20:07.745Z,27.92
2023-04-15T20:22:35.529Z,28.16
2023-04-15T20:25:03.410Z,28.21
2023-04-15T20:27:31.749Z,28.27
2023-04-15T20:29:58.915Z,28.43
2023-04-15T20:32:28.468Z,28.77
2023-04-15T20:34:55.849Z,28.12
2023-04-15T20:37:23.039Z,28.50
2023-04-15T20:39:50.224Z,28.96
2023-04-15T20:42:18.786Z,28.48
2023-04-15T20:44:45.977Z,28.82
2023-04-15T20:47:13.265Z,28.67
2023-04-15T20:49:40.515Z,28.65
2023-04-15T20:52:08.566Z,28.70
2023-04-15T20:54:36.069Z,28.76
2023-04-15T20:57:03.184Z,28.21
2023-04-15T20:59:30.519Z,28.37
2023-04-15T21:01:58.373Z,28.26
2023-04-15T21:04:25.641Z,28.70
2023-04-15T21:06:52.691Z,28.08
2023-04-15T21:09:20.220Z,28.21
2023-04-15T21:14:19.274Z,28.09
2023-04-15T21:16:46.796Z,28.79
2023-04-15T21:19:13.980Z,28.57
2023-04-15T21:21:41.197Z,28.27
2023-04-15T21:24:08.397Z,27.94
2023-04-15T21:26:36.356Z,29.02
2023-04-15T21:29:03.801Z,28.77
2023-04-15T21:31:31.194Z,29.06
2023-04-15T21:33:58.391Z,28.63
2023-04-15T21:36:25.990Z,29.17
2023-04-15T21:38:53.276Z,29.20
2023-04-15T21:41:20.655Z,28.79
2023-04-15T21:43:47.896Z,29.16
2023-04-15T21:46:22.110Z,29.66
2023-04-15T21:48:55.792Z,29.38
2023-04-15T21:51:23.097Z,29.11
2023-04-15T21:53:50.270Z,29.75
2023-04-15T21:56:17.388Z,29.66
2023-04-15T21:58:44.485Z,29.46
2023-04-15T22:01:11.909Z,30.09
2023-04-15T22:03:39.363Z,29.68
2023-04-15T22:06:06.886Z,29.65
2023-04-15T22:08:41.750Z,29.84
2023-04-15T22:11:23.199Z,29.50
2023-04-15T22:13:50.691Z,29.54
2023-04-15T22:16:18.119Z,29.79
2023-04-15T22:18:45.312Z,30.42
2023-04-15T22:21:13.620Z,30.04
2023-04-15T22:23:41.097Z,30.08
2023-04-15T22:26:08.213Z,29.44
2023-04-15T22:28:35.212Z,30.16
2023-04-15T22:31:02.498Z,30.03
2023-04-15T22:33:30.028Z,30.48
2023-04-15T22:35:57.275Z,29.86
2023-04-15T22:38:24.991Z,30.33
2023-04-15T22:40:54.142Z,30.33
2023-04-15T22:43:21.369Z,30.56
2023-04-15T22:45:53.076Z,30.90
2023-04-15T22:48:20.410Z,30.96
2023-04-15T22:50:47.727Z,30.46
2023-04-15T22:53:17.425Z,31.10
2023-04-15T22:55:48.318Z,30.39
2023-04-15T22:58:16.429Z,30.37
2023-04-15T23:00:43.482Z,31.10
2023-04-15T23:03:11.064Z,30.47
2023-04-15T23:05:40.203Z,30.74
2023-04-15T23:08:08.205Z,30.46
2023-04-15T23:10:35.670Z,30.65
2023-04-15T23:13:02.893Z,30.57
2023-04-15T23:15:29.989Z,31.01
2023-04-15T23:17:57.110Z,30.32
2023-04-15T23:20:24.268Z,30.70
2023-04-15T23:22:51.540Z,30.91
2023-04-15T23:25:22.397Z,30.74
2023-04-15T23:27:51.903Z,30.73
2023-04-15T23:30:18.997Z,30.35
2023-04-15T23:32:46.649Z,30.85
2023-04-15T23:35:13.848Z,30.29
2023-04-15T23:37:41.034Z,30.73
2023-04-15T23:40:08.778Z,31.01
2023-04-15T23:42:35.838Z,30.85
2023-04-15T23:45:02.877Z,31.03
2023-04-15T23:47:33.396Z,30.89
2023-04-15T23:50:00.653Z,30.96
2023-04-15T23:52:27.926Z,31.01
2023-04-15T23:54:54.971Z,30.92
2023-04-15T23:57:22.132Z,30.75
2023-04-15T23:59:49.140Z,31.23
